Merry Christmas and Happy New Year!

 

Sretan Božić i Nova godina!

 

METAR

METAR LDZA 190600Z 00000KT 8000 NSC M07/M08 Q1024 NOSIG =
METAR LDSP 190600Z 33005KT CAVOK 02/M06 Q1026 NOSIG=
METAR LDDU 190600Z 02011KT 300V100 CAVOK 03/M08 Q1025 NOSIG =
METAR LDZD 190600Z 14005KT 9999 FEW035 M04/M05 Q1025 NOSIG =
METAR LDPL 190600Z 07003KT 9999 BKN025 M00/M02 Q1025 NOSIG=
METAR LDOS 190600Z 20003KT CAVOK M03/M05 Q1024=
METAR  LDRI 190600Z 12005KT 9999 BKN040 03/01 Q1025=

TAF

TAF LDZA 190525Z 1906/2006 22005KT CAVOK
                 TX06/1913Z TNM06/1906Z
           BECMG 1911/1913 22008KT
           TEMPO 1916/2000 22015KT=
TAF LDSP 190525Z 1906/2006 05005KT 9999 SCT040
                 TX08/1913Z TN02/1906Z=
TAF LDDU 190525Z 1906/2006 02012KT CAVOK
                 TX07/1913Z TN03/1906Z
           BECMG 1908/1910 28007KT
           BECMG 1918/1920 08008KT=
TAF LDZD 190525Z 1906/2006 13006KT 9999 SCT035
                 TX08/1913Z TNM05/1906Z
          PROB30 1912/1915 20007KT=
TAF LDPL 190525Z 1906/2006 VRB02KT 9999 FEW030
                 TX09/1912Z TN01/1906Z=
TAF LDOS 190525Z 1906/2006 22007KT CAVOK
                 TX05/1913Z TNM02/1906Z
    PROB30 TEMPO 2000/2006 24015KT=
TAF LDRI 190525Z 1906/2006 VRB02KT 9999 SCT030
                 TX08/1912Z TN03/1906Z=

SIGMET

AIRMET

If you cannot log in with your user account, please contact stjepko.jancijev@crocontrol.hr.
Specifically, the website deactivates user accounts that have not been used for more than 365 days, so they must be reactivated.
 

         

      Politika MET podataka      

 

Ukoliko se svojim korisničkim računom ne možete logirati na web stranicu, molim vas da se obratite na stjepko.jancijev@crocontrol.hr.

Naime, web stranica deaktivira korisničke račune koji nisu korišteni više od 365 dana te ih je potrebno ponovno aktivirati.